createdAt,value
2019-04-11T00:03:05.072Z,56.30
2019-04-11T00:06:09.775Z,56.30
2019-04-11T00:09:18.754Z,56.10
2019-04-11T00:12:24.287Z,56.10
2019-04-11T00:15:30.708Z,55.90
2019-04-11T00:18:35.213Z,56.10
2019-04-11T00:21:41.548Z,56.00
2019-04-11T00:24:47.138Z,56.00
2019-04-11T00:27:53.049Z,56.00
2019-04-11T00:31:00.746Z,55.90
2019-04-11T00:34:06.911Z,55.90
2019-04-11T00:37:12.735Z,55.90
2019-04-11T00:40:18.615Z,55.80
2019-04-11T00:43:31.574Z,55.90
2019-04-11T00:46:32.051Z,55.90
2019-04-11T00:49:36.888Z,55.80
2019-04-11T00:52:41.433Z,55.80
2019-04-11T00:55:48.112Z,55.70
2019-04-11T00:58:53.801Z,55.80
2019-04-11T01:01:58.904Z,55.90
2019-04-11T01:05:03.601Z,55.70
2019-04-11T01:08:08.367Z,55.80
2019-04-11T01:11:14.675Z,55.80
2019-04-11T01:14:19.473Z,55.80
2019-04-11T01:17:23.994Z,56.00
2019-04-11T01:20:29.324Z,56.10
2019-04-11T01:23:35.399Z,56.20
2019-04-11T01:26:41.333Z,56.10
2019-04-11T01:29:46.040Z,56.10
2019-04-11T01:32:53.471Z,56.10
2019-04-11T01:35:58.172Z,56.10
2019-04-11T01:39:05.960Z,56.20
2019-04-11T01:42:13.253Z,56.30
2019-04-11T01:45:21.133Z,56.30
2019-04-11T01:48:35.349Z,56.40
2019-04-11T01:51:42.098Z,56.60
2019-04-11T01:54:47.946Z,56.60
2019-04-11T01:57:54.274Z,56.80
2019-04-11T02:01:08.340Z,56.90
2019-04-11T02:04:38.526Z,56.90
2019-04-11T02:07:43.129Z,57.00
2019-04-11T02:10:48.754Z,57.20
2019-04-11T02:14:05.147Z,57.30
2019-04-11T02:16:59.574Z,57.20
2019-04-11T02:20:05.466Z,57.40
2019-04-11T02:23:24.738Z,57.40
2019-04-11T02:26:31.539Z,57.60
2019-04-11T02:29:35.974Z,57.70
2019-04-11T02:32:40.603Z,57.80
2019-04-11T02:35:47.176Z,57.80
2019-04-11T02:38:55.076Z,57.80
2019-04-11T02:41:59.097Z,57.90
2019-04-11T02:45:22.786Z,58.00
2019-04-11T02:48:13.225Z,58.10
2019-04-11T02:51:18.264Z,58.30
2019-04-11T02:54:26.201Z,58.40
2019-04-11T02:57:29.916Z,58.50
2019-04-11T03:00:37.179Z,58.70
2019-04-11T03:03:42.254Z,58.80
2019-04-11T03:06:47.914Z,58.80
2019-04-11T03:09:53.601Z,58.90
2019-04-11T03:12:59.048Z,59.10
2019-04-11T03:16:19.236Z,59.40
2019-04-11T03:19:28.496Z,59.50
2019-04-11T03:22:16.183Z,59.60
2019-04-11T03:25:22.426Z,59.90
2019-04-11T03:28:30.490Z,59.90
2019-04-11T03:32:13.759Z,60.00
2019-04-11T03:38:04.201Z,60.40
2019-04-11T03:41:12.195Z,60.60
2019-04-11T03:44:04.467Z,60.60
2019-04-11T03:47:16.658Z,60.90
2019-04-11T03:50:16.558Z,61.20
2019-04-11T03:53:17.324Z,61.20
2019-04-11T03:56:22.057Z,61.40
2019-04-11T03:59:27.032Z,61.50
2019-04-11T04:02:32.765Z,61.70
2019-04-11T04:05:38.996Z,61.70
2019-04-11T04:08:44.462Z,61.70
2019-04-11T04:11:49.807Z,61.70
2019-04-11T04:15:32.551Z,61.70
2019-04-11T04:18:36.286Z,61.80
2019-04-11T04:21:50.974Z,61.80
2019-04-11T04:24:56.180Z,61.90
2019-04-11T04:28:00.702Z,62.00
2019-04-11T04:31:07.027Z,62.10
2019-04-11T04:34:12.097Z,62.30
2019-04-11T04:37:18.129Z,62.40
2019-04-11T04:40:38.850Z,62.40
2019-04-11T04:43:29.561Z,62.50
2019-04-11T04:46:47.341Z,62.60
2019-04-11T04:49:41.005Z,62.60
2019-04-11T04:52:45.540Z,62.80
2019-04-11T04:55:50.308Z,62.90
2019-04-11T04:58:56.073Z,62.90
2019-04-11T05:02:01.719Z,62.90
2019-04-11T05:05:09.427Z,63.10
2019-04-11T05:08:14.515Z,63.20
2019-04-11T05:11:18.890Z,63.40
2019-04-11T05:14:23.461Z,63.60
2019-04-11T05:17:29.023Z,63.40
2019-04-11T05:20:34.276Z,63.70
2019-04-11T05:23:39.525Z,63.60
2019-04-11T05:26:44.013Z,63.60
2019-04-11T05:29:49.438Z,63.70
2019-04-11T05:32:53.895Z,63.60
2019-04-11T05:35:58.520Z,63.70
2019-04-11T05:39:03.111Z,63.70
2019-04-11T05:42:07.467Z,63.70
2019-04-11T05:45:18.291Z,63.80
2019-04-11T05:48:36.850Z,63.90
2019-04-11T05:51:47.076Z,64.00
2019-04-11T05:54:54.515Z,63.90
2019-04-11T05:58:00.714Z,64.00
2019-04-11T06:01:24.461Z,64.00
2019-04-11T06:04:34.398Z,64.10
2019-04-11T06:07:47.753Z,64.00
2019-04-11T06:11:02.865Z,63.80
2019-04-11T06:14:39.639Z,64.70
2019-04-11T06:17:46.088Z,64.70
2019-04-11T06:20:53.610Z,64.80
2019-04-11T06:24:16.334Z,63.80
2019-04-11T06:27:35.839Z,63.80
2019-04-11T06:30:56.920Z,63.80
2019-04-11T06:34:05.021Z,64.00
2019-04-11T06:37:31.910Z,64.00
2019-04-11T06:40:46.083Z,64.10
2019-04-11T06:43:58.456Z,64.10
2019-04-11T06:47:20.991Z,64.20
2019-04-11T06:50:43.891Z,64.30
2019-04-11T06:54:08.450Z,64.30
2019-04-11T06:57:19.454Z,64.40
2019-04-11T07:00:25.185Z,64.40
2019-04-11T07:03:33.793Z,64.80
2019-04-11T07:06:39.902Z,65.00
2019-04-11T07:09:49.586Z,65.00
2019-04-11T07:13:19.034Z,64.90
2019-04-11T07:16:23.378Z,65.00
2019-04-11T07:19:46.585Z,65.10
2019-04-11T07:23:08.683Z,65.20
2019-04-11T07:26:30.935Z,65.20
2019-04-11T07:29:54.265Z,65.20
2019-04-11T07:33:13.669Z,65.30
2019-04-11T07:36:38.263Z,65.30
2019-04-11T07:40:07.426Z,65.30
2019-04-11T07:43:39.797Z,65.30
2019-04-11T07:47:13.697Z,65.30
2019-04-11T07:50:10.111Z,65.40
2019-04-11T07:53:15.606Z,65.50
2019-04-11T07:56:50.963Z,65.30
2019-04-11T08:00:17.197Z,65.60
2019-04-11T08:03:30.078Z,65.80
2019-04-11T08:06:42.375Z,65.90
2019-04-11T08:09:55.674Z,65.80
2019-04-11T08:13:02.354Z,65.90
2019-04-11T08:16:26.676Z,66.10
2019-04-11T08:19:59.606Z,66.20
2019-04-11T08:23:07.581Z,66.40
2019-04-11T08:26:30.421Z,66.40
2019-04-11T08:29:35.956Z,66.70
2019-04-11T08:32:53.896Z,66.50
2019-04-11T08:36:20.256Z,66.40
2019-04-11T08:39:29.414Z,66.40
2019-04-11T08:43:04.995Z,66.60
2019-04-11T08:46:18.902Z,66.60
2019-04-11T08:49:33.759Z,66.60
2019-04-11T08:53:00.759Z,66.80
2019-04-11T08:56:07.035Z,66.60
2019-04-11T08:59:31.699Z,66.80
2019-04-11T09:02:45.546Z,66.80
2019-04-11T09:06:10.650Z,66.80
2019-04-11T09:09:33.474Z,66.60
2019-04-11T09:12:42.694Z,66.60
2019-04-11T09:16:05.547Z,66.50
2019-04-11T09:19:28.958Z,66.50
2019-04-11T09:22:59.534Z,66.30
2019-04-11T09:26:32.037Z,66.40
2019-04-11T09:29:40.374Z,67.30
2019-04-11T09:33:18.718Z,69.70
2019-04-11T09:36:45.054Z,71.20
2019-04-11T09:40:11.941Z,70.80
2019-04-11T09:43:18.092Z,71.00
2019-04-11T09:46:37.172Z,70.00
2019-04-11T09:49:47.243Z,69.60
2019-04-11T09:52:51.758Z,69.40
2019-04-11T09:56:21.127Z,69.40
2019-04-11T09:59:31.569Z,69.20
2019-04-11T10:02:56.152Z,69.00
2019-04-11T10:06:32.363Z,68.90
2019-04-11T10:10:02.607Z,68.90
2019-04-11T10:13:31.022Z,68.80
2019-04-11T10:16:53.046Z,68.40
2019-04-11T10:20:06.624Z,68.30
2019-04-11T10:23:23.006Z,68.20
2019-04-11T10:26:29.724Z,68.00
2019-04-11T10:29:53.106Z,67.50
2019-04-11T10:33:00.391Z,67.30
2019-04-11T10:36:25.187Z,67.30
2019-04-11T10:39:46.364Z,67.10
2019-04-11T10:42:51.794Z,67.10
2019-04-11T10:46:19.389Z,66.90
2019-04-11T10:49:55.159Z,66.60
2019-04-11T10:53:02.587Z,66.30
2019-04-11T10:56:30.601Z,66.20
2019-04-11T10:59:35.777Z,66.00
2019-04-11T11:02:59.840Z,65.70
2019-04-11T11:06:05.431Z,65.20
2019-04-11T11:09:21.814Z,64.50
2019-04-11T11:12:51.738Z,64.30
2019-04-11T11:15:58.258Z,64.40
2019-04-11T11:19:40.881Z,64.10
2019-04-11T11:22:46.715Z,64.00
2019-04-11T11:26:02.548Z,64.00
2019-04-11T11:29:32.202Z,63.80
2019-04-11T11:32:39.648Z,63.70
2019-04-11T11:36:13.273Z,63.50
2019-04-11T11:39:22.686Z,63.60
2019-04-11T11:42:44.642Z,63.20
2019-04-11T11:46:07.021Z,63.30
2019-04-11T11:49:36.320Z,62.70
2019-04-11T11:52:47.147Z,62.50
2019-04-11T11:55:55.674Z,62.70
2019-04-11T11:59:25.446Z,62.50
2019-04-11T12:02:53.030Z,62.40
2019-04-11T12:06:05.368Z,62.20
2019-04-11T12:09:28.723Z,61.90
2019-04-11T12:12:42.316Z,61.90
2019-04-11T12:16:09.905Z,61.80
2019-04-11T12:19:45.785Z,61.60
2019-04-11T12:22:42.232Z,61.60
2019-04-11T12:25:47.359Z,61.20
2019-04-11T12:29:10.366Z,61.00
2019-04-11T12:32:17.514Z,61.00
2019-04-11T12:35:38.072Z,61.10
2019-04-11T12:39:07.216Z,61.20
2019-04-11T12:42:24.781Z,61.00
2019-04-11T12:45:53.859Z,61.00
2019-04-11T12:49:04.063Z,61.10
2019-04-11T12:52:33.675Z,61.20
2019-04-11T12:55:55.860Z,60.70
2019-04-11T12:59:12.782Z,60.80
2019-04-11T13:02:42.780Z,60.60
2019-04-11T13:05:47.452Z,60.80
2019-04-11T13:09:13.516Z,60.50
2019-04-11T13:12:39.867Z,60.60
2019-04-11T13:15:46.897Z,60.50
2019-04-11T13:19:15.527Z,60.30
2019-04-11T13:22:22.418Z,60.50
2019-04-11T13:25:52.044Z,60.40
2019-04-11T13:29:14.594Z,60.50
2019-04-11T13:32:38.057Z,60.60
2019-04-11T13:36:04.185Z,60.50
2019-04-11T13:39:08.553Z,60.80
2019-04-11T13:42:31.755Z,60.40
2019-04-11T13:45:42.848Z,61.40
2019-04-11T13:49:03.474Z,60.90
2019-04-11T13:52:29.613Z,60.80
2019-04-11T13:55:42.051Z,60.80
2019-04-11T13:59:03.639Z,60.60
2019-04-11T14:02:15.666Z,60.70
2019-04-11T14:05:20.096Z,61.80
2019-04-11T14:08:29.075Z,60.80
2019-04-11T14:11:49.579Z,60.90
2019-04-11T14:15:12.824Z,61.00
2019-04-11T14:18:33.808Z,61.40
2019-04-11T14:21:38.170Z,61.30
2019-04-11T14:25:00.264Z,61.60
2019-04-11T14:28:04.979Z,61.50
2019-04-11T14:31:25.279Z,61.60
2019-04-11T14:34:57.835Z,61.60
2019-04-11T14:38:07.288Z,61.50
2019-04-11T14:41:33.011Z,61.50
2019-04-11T14:44:37.667Z,61.50
2019-04-11T14:48:19.391Z,61.50
2019-04-11T14:51:55.125Z,61.50
2019-04-11T14:55:01.620Z,61.30
2019-04-11T14:58:32.538Z,61.00
2019-04-11T15:01:36.819Z,60.90
2019-04-11T15:04:50.587Z,60.90
2019-04-11T15:07:55.356Z,61.10
2019-04-11T15:11:21.535Z,62.00
2019-04-11T15:14:53.775Z,60.90
2019-04-11T15:17:59.875Z,61.00
2019-04-11T15:21:17.980Z,60.80
2019-04-11T15:24:22.912Z,60.80
2019-04-11T15:27:44.502Z,60.60
2019-04-11T15:30:50.460Z,60.80
2019-04-11T15:34:16.845Z,61.00
2019-04-11T15:37:58.931Z,61.10
2019-04-11T15:41:03.563Z,61.30
2019-04-11T15:44:45.008Z,61.60
2019-04-11T15:48:08.292Z,61.80
2019-04-11T15:51:28.313Z,61.60
2019-04-11T15:54:54.633Z,61.60
2019-04-11T15:57:59.044Z,61.60
2019-04-11T16:01:28.604Z,61.70
2019-04-11T16:04:50.775Z,61.90
2019-04-11T16:08:12.973Z,62.10
2019-04-11T16:11:51.614Z,62.10
2019-04-11T16:15:10.483Z,62.20
2019-04-11T16:18:32.939Z,62.20
2019-04-11T16:21:54.926Z,62.20
2019-04-11T16:25:02.491Z,63.10
2019-04-11T16:28:24.867Z,62.40
2019-04-11T16:31:37.841Z,62.40
2019-04-11T16:34:54.469Z,62.50
2019-04-11T16:38:00.379Z,62.70
2019-04-11T16:41:23.782Z,62.60
2019-04-11T16:44:34.519Z,62.70
2019-04-11T16:48:01.982Z,62.70
2019-04-11T16:51:06.358Z,62.90
2019-04-11T16:54:10.736Z,63.70
2019-04-11T16:57:15.131Z,62.80
2019-04-11T17:00:20.620Z,62.80
2019-04-11T17:03:26.788Z,62.80
2019-04-11T17:06:55.354Z,63.00
2019-04-11T17:09:59.504Z,63.10
2019-04-11T17:13:03.870Z,63.20
2019-04-11T17:16:11.683Z,63.20
2019-04-11T17:19:16.036Z,63.40
2019-04-11T17:22:20.467Z,63.60
2019-04-11T17:25:24.824Z,63.70
2019-04-11T17:28:29.110Z,63.70
2019-04-11T17:31:33.466Z,63.80
2019-04-11T17:34:37.770Z,63.80
2019-04-11T17:37:41.944Z,63.90
2019-04-11T17:40:46.331Z,64.20
2019-04-11T17:43:51.787Z,64.30
2019-04-11T17:46:56.769Z,64.70
2019-04-11T17:50:04.377Z,64.60
2019-04-11T17:53:08.350Z,64.60
2019-04-11T17:56:12.803Z,64.90
2019-04-11T17:59:17.190Z,65.10
2019-04-11T18:02:21.552Z,65.00
2019-04-11T18:05:26.287Z,65.10
2019-04-11T18:08:30.965Z,65.40
2019-04-11T18:11:35.264Z,65.30
2019-04-11T18:14:39.563Z,65.30
2019-04-11T18:17:43.954Z,65.20
2019-04-11T18:20:48.229Z,65.30
2019-04-11T18:23:52.437Z,65.40
2019-04-11T18:26:57.658Z,65.30
2019-04-11T18:30:01.962Z,65.30
2019-04-11T18:33:06.360Z,65.30
2019-04-11T18:36:13.527Z,65.40
2019-04-11T18:39:18.166Z,65.40
2019-04-11T18:42:22.572Z,65.50
2019-04-11T18:45:26.923Z,65.60
2019-04-11T18:48:31.328Z,65.60
2019-04-11T18:51:36.208Z,65.60
2019-04-11T18:54:40.630Z,65.70
2019-04-11T18:57:46.088Z,65.80
2019-04-11T19:00:50.798Z,66.00
2019-04-11T19:03:56.336Z,65.90
2019-04-11T19:07:04.927Z,66.00
2019-04-11T19:10:14.422Z,66.00
2019-04-11T19:13:16.969Z,66.10
2019-04-11T19:16:21.705Z,66.00
2019-04-11T19:19:27.478Z,66.00
2019-04-11T19:22:37.609Z,66.10
2019-04-11T19:25:44.278Z,66.20
2019-04-11T19:28:45.749Z,66.20
2019-04-11T19:31:51.067Z,66.40
2019-04-11T19:34:55.414Z,66.40
2019-04-11T19:38:00.040Z,67.00
2019-04-11T19:41:04.306Z,66.40
2019-04-11T19:44:08.806Z,66.50
2019-04-11T19:47:13.068Z,66.60
2019-04-11T19:50:17.306Z,66.60
2019-04-11T19:53:21.565Z,67.60
2019-04-11T19:56:41.626Z,66.80
2019-04-11T19:59:45.902Z,66.90
2019-04-11T20:02:51.863Z,66.70
2019-04-11T20:05:56.201Z,66.60
2019-04-11T20:09:00.803Z,66.70
2019-04-11T20:12:08.086Z,66.80
2019-04-11T20:15:15.190Z,67.10
2019-04-11T20:18:22.690Z,67.30
2019-04-11T20:21:26.521Z,67.30
2019-04-11T20:24:30.981Z,67.50
2019-04-11T20:27:35.259Z,67.50
2019-04-11T20:30:39.544Z,67.60
2019-04-11T20:33:43.839Z,67.60
2019-04-11T20:36:48.109Z,67.60
2019-04-11T20:39:52.534Z,67.60
2019-04-11T20:42:56.943Z,67.70
2019-04-11T20:46:01.330Z,67.80
2019-04-11T20:49:05.985Z,67.90
2019-04-11T20:52:11.359Z,67.50
2019-04-11T20:55:15.708Z,67.80
2019-04-11T20:58:27.170Z,67.90
2019-04-11T21:01:26.341Z,68.00
2019-04-11T21:04:32.627Z,68.30
2019-04-11T21:07:39.070Z,68.20
2019-04-11T21:10:42.943Z,68.20
2019-04-11T21:13:47.709Z,68.40
2019-04-11T21:16:52.115Z,68.30
2019-04-11T21:19:56.447Z,68.50
2019-04-11T21:23:00.856Z,68.40
2019-04-11T21:26:05.143Z,68.50
2019-04-11T21:29:09.356Z,68.60
2019-04-11T21:32:14.103Z,68.60
2019-04-11T21:35:18.484Z,68.40
2019-04-11T21:38:22.781Z,68.40
2019-04-11T21:41:27.139Z,68.40
2019-04-11T21:44:36.777Z,68.50
2019-04-11T21:47:40.427Z,68.60
2019-04-11T21:50:44.611Z,68.70
2019-04-11T21:53:48.930Z,68.60
2019-04-11T21:56:53.278Z,69.00
2019-04-11T21:59:57.665Z,69.00
2019-04-11T22:03:02.046Z,69.20
2019-04-11T22:06:06.417Z,69.10
2019-04-11T22:09:10.769Z,69.20
2019-04-11T22:12:15.133Z,69.10
2019-04-11T22:15:19.375Z,69.10
2019-04-11T22:18:23.692Z,69.20
2019-04-11T22:21:28.008Z,69.30
2019-04-11T22:24:32.375Z,70.10
2019-04-11T22:27:36.646Z,69.40
2019-04-11T22:30:40.947Z,69.50
2019-04-11T22:33:49.234Z,69.50
2019-04-11T22:36:53.614Z,69.50
2019-04-11T22:40:01.782Z,69.50
2019-04-11T22:43:08.142Z,69.60
2019-04-11T22:46:20.473Z,69.60
2019-04-11T22:49:18.505Z,69.70
2019-04-11T22:52:22.823Z,70.10
2019-04-11T22:55:27.180Z,70.00
2019-04-11T22:58:31.465Z,69.90
2019-04-11T23:01:36.046Z,70.00
2019-04-11T23:04:40.315Z,70.20
2019-04-11T23:07:45.878Z,70.20
2019-04-11T23:10:50.677Z,70.20
2019-04-11T23:13:55.028Z,71.10
2019-04-11T23:16:59.377Z,70.20
2019-04-11T23:20:03.784Z,70.40
2019-04-11T23:23:08.139Z,70.20
2019-04-11T23:26:12.606Z,70.40
2019-04-11T23:29:16.958Z,70.40
2019-04-11T23:32:21.930Z,70.30
2019-04-11T23:35:26.290Z,70.40
2019-04-11T23:38:30.576Z,70.50
2019-04-11T23:41:54.000Z,71.50
2019-04-11T23:44:58.328Z,70.50
2019-04-11T23:48:02.580Z,70.50
2019-04-11T23:51:06.905Z,70.50
2019-04-11T23:54:11.262Z,70.50
2019-04-11T23:57:15.643Z,70.50
